createdAt,value
2022-12-27T00:01:44.029Z,3.03
2022-12-27T00:04:12.143Z,3.17
2022-12-27T00:06:40.569Z,3.67
2022-12-27T00:09:08.835Z,3.17
2022-12-27T00:11:37.239Z,2.97
2022-12-27T00:14:06.987Z,3.00
2022-12-27T00:16:35.981Z,3.03
2022-12-27T00:19:06.073Z,2.93
2022-12-27T00:21:34.998Z,3.20
2022-12-27T00:24:03.056Z,3.23
2022-12-27T00:26:32.761Z,2.87
2022-12-27T00:29:01.397Z,3.20
2022-12-27T00:31:31.714Z,2.90
2022-12-27T00:34:01.503Z,2.57
2022-12-27T00:36:32.307Z,2.80
2022-12-27T00:39:01.409Z,2.40
2022-12-27T00:41:29.673Z,2.47
2022-12-27T00:43:57.809Z,2.47
2022-12-27T00:46:25.985Z,2.90
2022-12-27T00:48:55.363Z,2.43
2022-12-27T00:51:25.569Z,2.33
2022-12-27T00:53:55.856Z,2.33
2022-12-27T00:56:25.778Z,2.33
2022-12-27T00:58:55.337Z,2.87
2022-12-27T01:01:25.129Z,2.67
2022-12-27T01:03:53.787Z,2.63
2022-12-27T01:06:23.743Z,2.50
2022-12-27T01:08:51.889Z,2.40
2022-12-27T01:11:21.765Z,2.43
2022-12-27T01:13:50.240Z,2.03
2022-12-27T01:16:21.419Z,2.30
2022-12-27T01:18:50.288Z,2.47
2022-12-27T01:21:20.401Z,2.30
2022-12-27T01:23:48.845Z,1.93
2022-12-27T01:26:18.267Z,2.73
2022-12-27T01:28:49.165Z,2.20
2022-12-27T01:31:20.409Z,1.80
2022-12-27T01:33:48.966Z,2.30
2022-12-27T01:36:19.183Z,2.53
2022-12-27T01:38:48.179Z,2.00
2022-12-27T01:41:35.714Z,2.40
2022-12-27T01:44:50.311Z,2.13
2022-12-27T01:47:23.818Z,2.40
2022-12-27T01:49:58.773Z,2.30
2022-12-27T01:52:34.811Z,1.90
2022-12-27T01:55:08.635Z,2.10
2022-12-27T01:57:37.033Z,2.60
2022-12-27T02:00:06.567Z,2.23
2022-12-27T02:02:37.097Z,2.20
2022-12-27T02:05:06.053Z,2.43
2022-12-27T02:07:42.381Z,2.00
2022-12-27T02:10:10.522Z,1.97
2022-12-27T02:12:38.824Z,2.10
2022-12-27T02:15:07.564Z,2.10
2022-12-27T02:17:37.080Z,2.53
2022-12-27T02:20:08.777Z,2.70
2022-12-27T02:23:11.649Z,1.80
2022-12-27T02:25:57.247Z,2.43
2022-12-27T02:28:43.340Z,1.83
2022-12-27T02:31:13.152Z,2.50
2022-12-27T02:33:45.442Z,2.13
2022-12-27T02:36:17.071Z,3.47
2022-12-27T02:38:48.527Z,2.30
2022-12-27T02:41:34.011Z,2.00
2022-12-27T02:44:20.709Z,1.80
2022-12-27T02:47:06.297Z,2.63
2022-12-27T02:49:53.469Z,2.40
2022-12-27T02:52:51.043Z,2.80
2022-12-27T02:55:30.632Z,2.27
2022-12-27T02:58:08.959Z,1.97
2022-12-27T03:01:02.082Z,2.20
2022-12-27T03:03:44.864Z,2.00
2022-12-27T03:06:43.176Z,2.30
2022-12-27T03:09:41.608Z,2.10
2022-12-27T03:12:31.192Z,2.30
2022-12-27T03:15:22.745Z,2.10
2022-12-27T03:17:56.099Z,2.10
2022-12-27T03:20:41.940Z,2.30
2022-12-27T03:23:27.913Z,2.93
2022-12-27T03:25:57.432Z,2.03
2022-12-27T03:28:46.346Z,2.23
2022-12-27T03:31:35.945Z,1.90
2022-12-27T03:34:22.437Z,2.00
2022-12-27T03:37:07.929Z,2.20
2022-12-27T03:39:38.722Z,2.13
2022-12-27T03:42:29.192Z,2.30
2022-12-27T03:44:57.264Z,1.90
2022-12-27T03:47:30.339Z,2.27
2022-12-27T03:50:05.493Z,1.87
2022-12-27T03:52:37.996Z,2.10
2022-12-27T03:55:07.112Z,2.13
2022-12-27T03:57:35.505Z,2.10
2022-12-27T04:00:04.475Z,2.10
2022-12-27T04:02:41.596Z,2.53
2022-12-27T04:05:12.243Z,2.03
2022-12-27T04:07:54.293Z,2.63
2022-12-27T04:10:40.131Z,2.13
2022-12-27T04:13:25.932Z,2.17
2022-12-27T04:16:11.278Z,2.00
2022-12-27T04:18:56.972Z,2.20
2022-12-27T04:21:44.142Z,2.10
2022-12-27T04:24:29.664Z,2.27
2022-12-27T04:27:15.152Z,2.07
2022-12-27T04:30:00.531Z,2.33
2022-12-27T04:32:45.849Z,2.00
2022-12-27T04:35:13.944Z,2.00
2022-12-27T04:37:43.725Z,2.10
2022-12-27T04:40:30.073Z,1.87
2022-12-27T04:43:15.375Z,2.13
2022-12-27T04:46:01.349Z,1.87
2022-12-27T04:48:48.253Z,2.23
2022-12-27T04:51:33.621Z,2.10
2022-12-27T04:54:20.857Z,2.30
2022-12-27T04:56:48.900Z,1.83
2022-12-27T04:59:34.437Z,2.33
2022-12-27T05:02:05.285Z,2.63
2022-12-27T05:04:34.586Z,1.90
2022-12-27T05:07:22.806Z,2.07
2022-12-27T05:10:10.063Z,1.90
2022-12-27T05:12:55.406Z,1.80
2022-12-27T05:15:23.510Z,2.10
2022-12-27T05:17:51.564Z,2.20
2022-12-27T05:20:19.691Z,1.83
2022-12-27T05:23:05.265Z,2.10
2022-12-27T05:25:38.641Z,2.27
2022-12-27T05:28:08.329Z,2.13
2022-12-27T05:30:37.645Z,2.30
2022-12-27T05:33:06.377Z,2.20
2022-12-27T05:35:35.485Z,2.40
2022-12-27T05:38:03.787Z,2.70
2022-12-27T05:40:32.195Z,2.30
2022-12-27T05:43:02.220Z,2.17
2022-12-27T05:45:31.287Z,2.00
2022-12-27T05:48:00.394Z,2.30
2022-12-27T05:50:28.913Z,2.30
2022-12-27T05:53:11.223Z,1.60
2022-12-27T05:55:39.431Z,1.90
2022-12-27T05:58:09.183Z,1.97
2022-12-27T06:00:37.286Z,2.20
2022-12-27T06:03:05.640Z,1.90
2022-12-27T06:05:33.956Z,2.50
2022-12-27T06:08:02.113Z,1.77
2022-12-27T06:10:30.456Z,2.20
2022-12-27T06:13:00.849Z,2.43
2022-12-27T06:15:30.424Z,2.20
2022-12-27T06:17:59.303Z,1.97
2022-12-27T06:20:27.843Z,2.30
2022-12-27T06:22:55.954Z,2.00
2022-12-27T06:25:24.004Z,1.73
2022-12-27T06:27:52.065Z,2.13
2022-12-27T06:30:20.484Z,2.60
2022-12-27T06:32:49.955Z,2.40
2022-12-27T06:35:18.442Z,2.53
2022-12-27T06:37:46.563Z,2.30
2022-12-27T06:40:14.915Z,2.30
2022-12-27T06:42:43.159Z,2.20
2022-12-27T06:45:11.839Z,2.10
2022-12-27T06:47:39.971Z,2.40
2022-12-27T06:50:10.214Z,1.90
2022-12-27T06:52:38.414Z,2.10
2022-12-27T06:55:07.346Z,2.40
2022-12-27T06:57:35.720Z,2.27
2022-12-27T07:00:05.129Z,2.30
2022-12-27T07:02:33.572Z,2.60
2022-12-27T07:05:01.995Z,2.30
2022-12-27T07:07:31.516Z,2.80
2022-12-27T07:09:59.990Z,2.03
2022-12-27T07:12:31.787Z,1.70
2022-12-27T07:15:05.000Z,1.87
2022-12-27T07:17:34.837Z,1.97
2022-12-27T07:20:03.213Z,2.33
2022-12-27T07:22:32.822Z,1.67
2022-12-27T07:25:00.984Z,1.87
2022-12-27T07:27:31.054Z,2.23
2022-12-27T07:29:59.367Z,2.00
2022-12-27T07:32:27.507Z,2.30
2022-12-27T07:34:55.597Z,2.67
2022-12-27T07:37:23.979Z,2.60
2022-12-27T07:39:53.668Z,2.20
2022-12-27T07:42:21.784Z,2.13
2022-12-27T07:44:49.948Z,2.27
2022-12-27T07:47:18.169Z,2.57
2022-12-27T07:49:46.267Z,2.20
2022-12-27T07:52:14.400Z,2.00
2022-12-27T07:54:42.995Z,2.27
2022-12-27T07:57:12.579Z,2.93
2022-12-27T07:59:40.809Z,2.40
2022-12-27T08:02:10.394Z,2.37
2022-12-27T08:04:39.291Z,1.90
2022-12-27T08:07:10.235Z,2.30
2022-12-27T08:09:40.298Z,2.40
2022-12-27T08:12:09.025Z,2.73
2022-12-27T08:14:38.549Z,2.80
2022-12-27T08:17:08.554Z,2.30
2022-12-27T08:19:36.843Z,3.00
2022-12-27T08:22:05.823Z,2.53
2022-12-27T08:24:34.118Z,2.00
2022-12-27T08:27:02.296Z,2.60
2022-12-27T08:29:30.805Z,2.53
2022-12-27T08:32:00.672Z,2.30
2022-12-27T08:34:28.737Z,2.10
2022-12-27T08:36:57.157Z,2.10
2022-12-27T08:39:25.365Z,2.43
2022-12-27T08:41:54.365Z,2.17
2022-12-27T08:44:22.649Z,2.40
2022-12-27T08:46:51.022Z,2.70
2022-12-27T08:49:20.489Z,2.50
2022-12-27T08:51:48.638Z,2.77
2022-12-27T08:54:16.853Z,2.63
2022-12-27T08:56:44.963Z,2.23
2022-12-27T08:59:13.144Z,2.30
2022-12-27T09:01:41.374Z,2.63
2022-12-27T09:04:09.553Z,2.50
2022-12-27T09:06:40.619Z,2.57
2022-12-27T09:09:08.873Z,2.50
2022-12-27T09:11:37.072Z,2.83
2022-12-27T09:14:06.815Z,2.83
2022-12-27T09:16:35.711Z,2.47
2022-12-27T09:19:05.214Z,2.47
2022-12-27T09:21:35.360Z,2.60
2022-12-27T09:24:05.408Z,2.43
2022-12-27T09:26:33.433Z,2.47
2022-12-27T09:29:01.608Z,2.60
2022-12-27T09:31:29.908Z,3.10
2022-12-27T09:33:58.345Z,2.53
2022-12-27T09:36:27.609Z,2.70
2022-12-27T09:38:57.122Z,2.47
2022-12-27T09:44:27.970Z,2.43
2022-12-27T09:46:58.796Z,2.70
2022-12-27T09:49:31.855Z,2.43
2022-12-27T09:52:03.510Z,2.17
2022-12-27T09:54:37.078Z,2.47
2022-12-27T09:57:20.891Z,2.23
2022-12-27T09:59:51.012Z,1.90
2022-12-27T10:02:22.971Z,2.23
2022-12-27T10:07:46.094Z,2.33
2022-12-27T10:10:19.965Z,2.30
2022-12-27T10:13:09.571Z,1.90
2022-12-27T10:15:48.404Z,2.07
2022-12-27T10:18:24.952Z,2.50
2022-12-27T10:21:00.157Z,2.10
2022-12-27T10:23:30.264Z,2.20
2022-12-27T10:26:00.287Z,2.30
2022-12-27T10:28:37.807Z,2.63
2022-12-27T10:31:06.580Z,2.20
2022-12-27T10:33:36.514Z,4.57
2022-12-27T10:36:10.899Z,4.67
2022-12-27T10:38:39.251Z,3.07
2022-12-27T10:41:18.940Z,5.53
2022-12-27T10:43:52.056Z,7.47
2022-12-27T10:46:22.958Z,7.60
2022-12-27T10:49:21.568Z,13.93
2022-12-27T10:51:49.100Z,7.07
2022-12-27T10:54:22.290Z,2.83
2022-12-27T10:56:50.398Z,9.13
2022-12-27T10:59:23.609Z,3.57
2022-12-27T11:02:13.719Z,3.00
2022-12-27T11:04:57.324Z,2.60
2022-12-27T11:07:30.747Z,2.93
2022-12-27T11:10:09.125Z,2.30
2022-12-27T11:12:37.835Z,2.37
2022-12-27T11:15:18.735Z,2.20
2022-12-27T11:17:48.184Z,2.20
2022-12-27T11:20:25.657Z,2.13
2022-12-27T11:22:55.604Z,1.93
2022-12-27T11:25:23.884Z,1.83
2022-12-27T11:27:54.712Z,1.47
2022-12-27T11:30:28.184Z,2.40
2022-12-27T11:32:56.973Z,1.57
2022-12-27T11:35:25.073Z,1.70
2022-12-27T11:37:53.554Z,1.77
2022-12-27T11:40:34.659Z,1.60
2022-12-27T11:43:08.353Z,2.83
2022-12-27T11:45:42.063Z,1.57
2022-12-27T11:48:19.502Z,1.73
2022-12-27T11:51:05.937Z,1.77
2022-12-27T11:54:09.802Z,2.03
2022-12-27T11:56:39.551Z,1.77
2022-12-27T11:59:40.286Z,1.80
2022-12-27T12:02:41.567Z,1.90
2022-12-27T12:05:41.941Z,2.07
2022-12-27T12:08:42.167Z,1.80
2022-12-27T12:11:19.872Z,2.03
2022-12-27T12:14:01.759Z,1.90
2022-12-27T12:17:01.975Z,1.70
2022-12-27T12:19:42.517Z,2.00
2022-12-27T12:22:30.765Z,1.80
2022-12-27T12:25:16.983Z,2.30
2022-12-27T12:27:57.555Z,2.30
2022-12-27T12:30:43.858Z,1.77
2022-12-27T12:33:39.721Z,2.30
2022-12-27T12:36:22.443Z,2.07
2022-12-27T12:38:54.717Z,2.27
2022-12-27T12:41:49.006Z,3.60
2022-12-27T12:44:41.729Z,4.47
2022-12-27T12:47:19.075Z,2.13
2022-12-27T12:50:03.021Z,2.47
2022-12-27T12:52:45.369Z,2.40
2022-12-27T12:55:26.602Z,2.07
2022-12-27T12:58:05.858Z,2.37
2022-12-27T13:00:50.295Z,1.63
2022-12-27T13:03:40.983Z,1.90
2022-12-27T13:06:18.694Z,2.00
2022-12-27T13:08:53.883Z,1.70
2022-12-27T13:11:29.767Z,2.10
2022-12-27T13:14:27.333Z,1.83
2022-12-27T13:17:00.122Z,2.90
2022-12-27T13:19:56.437Z,2.40
2022-12-27T13:22:33.653Z,1.80
2022-12-27T13:25:12.282Z,2.10
2022-12-27T13:27:45.614Z,2.00
2022-12-27T13:30:21.674Z,1.90
2022-12-27T13:33:23.062Z,2.13
2022-12-27T13:36:04.956Z,3.47
2022-12-27T13:38:43.995Z,2.23
2022-12-27T13:41:32.682Z,2.93
2022-12-27T13:44:22.345Z,2.60
2022-12-27T13:47:32.162Z,2.10
2022-12-27T13:50:13.467Z,2.20
2022-12-27T13:52:59.266Z,2.07
2022-12-27T13:55:38.273Z,2.00
2022-12-27T13:58:29.148Z,2.10
2022-12-27T14:01:03.069Z,2.30
2022-12-27T14:03:56.673Z,2.50
2022-12-27T14:06:38.511Z,2.60
2022-12-27T14:09:37.902Z,1.80
2022-12-27T14:12:37.945Z,2.23
2022-12-27T14:15:15.132Z,1.80
2022-12-27T14:17:48.001Z,2.73
2022-12-27T14:20:41.111Z,2.13
2022-12-27T14:23:41.964Z,2.10
2022-12-27T14:26:42.195Z,1.80
2022-12-27T14:29:40.870Z,2.00
2022-12-27T14:32:33.144Z,1.90
2022-12-27T14:35:24.406Z,1.60
2022-12-27T14:38:41.456Z,1.90
2022-12-27T14:42:00.431Z,1.90
2022-12-27T14:45:05.215Z,1.98
2022-12-27T14:48:03.850Z,2.10
2022-12-27T14:50:51.637Z,1.60
2022-12-27T14:53:45.225Z,1.70
2022-12-27T14:56:21.854Z,2.33
2022-12-27T14:58:57.201Z,2.17
2022-12-27T15:01:39.323Z,1.73
2022-12-27T15:04:32.383Z,2.00
2022-12-27T15:07:19.372Z,1.63
2022-12-27T15:09:50.878Z,1.90
2022-12-27T15:12:25.502Z,1.90
2022-12-27T15:15:20.543Z,1.97
2022-12-27T15:17:58.404Z,2.30
2022-12-27T15:20:37.647Z,2.03
2022-12-27T15:23:14.947Z,2.00
2022-12-27T15:25:56.273Z,1.87
2022-12-27T15:28:32.739Z,2.60
2022-12-27T15:31:06.272Z,2.10
2022-12-27T15:33:40.697Z,1.80
2022-12-27T15:36:15.210Z,2.03
2022-12-27T15:38:52.951Z,1.93
2022-12-27T15:41:48.258Z,1.83
2022-12-27T15:44:36.596Z,1.90
2022-12-27T15:47:33.005Z,2.27
2022-12-27T15:50:21.961Z,1.60
2022-12-27T15:53:04.479Z,1.70
2022-12-27T15:55:49.560Z,2.03
2022-12-27T15:58:18.550Z,2.10
2022-12-27T16:00:47.537Z,2.10
2022-12-27T16:03:34.649Z,2.30
2022-12-27T16:06:03.926Z,2.30
2022-12-27T16:08:35.788Z,2.00
2022-12-27T16:11:06.674Z,1.93
2022-12-27T16:13:43.381Z,2.00
2022-12-27T16:16:57.536Z,2.50
2022-12-27T16:19:40.929Z,2.43
2022-12-27T16:22:32.345Z,2.60
2022-12-27T16:25:30.711Z,2.40
2022-12-27T16:28:02.412Z,1.97
2022-12-27T16:30:43.286Z,2.30
2022-12-27T16:33:35.263Z,2.13
2022-12-27T16:36:14.447Z,2.17
2022-12-27T16:38:48.462Z,2.10
2022-12-27T16:41:23.900Z,2.43
2022-12-27T16:44:06.317Z,2.10
2022-12-27T16:46:49.701Z,2.50
2022-12-27T16:49:32.903Z,2.73
2022-12-27T16:52:10.057Z,2.60
2022-12-27T16:54:50.110Z,2.13
2022-12-27T16:57:42.047Z,2.90
2022-12-27T17:00:36.829Z,2.63
2022-12-27T17:03:32.294Z,2.20
2022-12-27T17:09:33.704Z,1.83
2022-12-27T17:12:15.825Z,2.43
2022-12-27T17:14:45.666Z,2.07
2022-12-27T17:17:18.819Z,2.10
2022-12-27T17:19:52.001Z,2.20
2022-12-27T17:22:21.165Z,2.20
2022-12-27T17:24:51.160Z,2.43
2022-12-27T17:27:27.581Z,2.20
2022-12-27T17:30:19.291Z,2.37
2022-12-27T17:33:17.903Z,2.10
2022-12-27T17:36:01.140Z,2.50
2022-12-27T17:38:39.863Z,2.97
2022-12-27T17:41:16.018Z,2.60
2022-12-27T17:44:10.571Z,2.67
2022-12-27T17:46:48.216Z,2.40
2022-12-27T17:49:18.116Z,2.73
2022-12-27T17:52:01.273Z,2.60
2022-12-27T17:54:47.557Z,2.60
2022-12-27T17:57:31.719Z,2.67
2022-12-27T18:00:00.518Z,2.83
2022-12-27T18:02:34.243Z,2.67
2022-12-27T18:05:05.129Z,2.73
2022-12-27T18:07:35.280Z,2.40
2022-12-27T18:10:07.859Z,2.73
2022-12-27T18:12:40.005Z,2.90
2022-12-27T18:15:14.553Z,3.13
2022-12-27T18:17:48.333Z,2.50
2022-12-27T18:20:33.953Z,3.03
2022-12-27T18:23:14.868Z,2.80
2022-12-27T18:25:54.899Z,3.20
2022-12-27T18:28:30.444Z,2.97
2022-12-27T18:31:04.818Z,3.53
2022-12-27T18:33:36.778Z,3.23
2022-12-27T18:36:07.142Z,3.00
2022-12-27T18:38:45.153Z,2.70
2022-12-27T18:41:16.759Z,3.17
2022-12-27T18:43:46.915Z,3.10
2022-12-27T18:46:16.962Z,2.90
2022-12-27T18:48:47.505Z,2.70
2022-12-27T18:51:17.072Z,3.03
2022-12-27T18:53:45.810Z,2.83
2022-12-27T18:56:29.177Z,2.67
2022-12-27T18:59:02.410Z,2.70
2022-12-27T19:01:38.559Z,2.67
2022-12-27T19:04:23.979Z,3.17
2022-12-27T19:06:56.720Z,2.93
2022-12-27T19:09:28.108Z,2.40
2022-12-27T19:11:59.698Z,2.60
2022-12-27T19:14:34.296Z,3.53
2022-12-27T19:17:08.680Z,2.47
2022-12-27T19:19:40.524Z,2.80
2022-12-27T19:22:35.552Z,3.10
2022-12-27T19:25:06.441Z,2.70
2022-12-27T19:27:34.500Z,2.60
2022-12-27T19:30:02.708Z,3.00
2022-12-27T19:32:33.378Z,3.20
2022-12-27T19:35:04.542Z,2.50
2022-12-27T19:37:33.469Z,3.00
2022-12-27T19:40:01.642Z,2.90
2022-12-27T19:42:33.376Z,2.60
2022-12-27T19:45:02.415Z,2.50
2022-12-27T19:47:31.712Z,2.93
2022-12-27T19:50:00.642Z,3.40
2022-12-27T19:52:31.488Z,3.43
2022-12-27T19:55:03.292Z,2.60
2022-12-27T19:57:32.743Z,3.63
2022-12-27T20:00:08.437Z,3.50
2022-12-27T20:02:40.762Z,3.17
2022-12-27T20:05:10.946Z,3.53
2022-12-27T20:07:41.601Z,3.40
2022-12-27T20:10:14.841Z,3.10
2022-12-27T20:12:43.915Z,3.00
2022-12-27T20:15:13.281Z,2.83
2022-12-27T20:17:44.996Z,3.10
2022-12-27T20:20:14.063Z,2.80
2022-12-27T20:22:43.647Z,3.00
2022-12-27T20:25:12.141Z,3.20
2022-12-27T20:27:40.492Z,3.20
2022-12-27T20:30:10.702Z,3.50
2022-12-27T20:32:39.752Z,2.80
2022-12-27T20:35:09.287Z,3.40
2022-12-27T20:37:39.714Z,3.00
2022-12-27T20:40:12.262Z,3.23
2022-12-27T20:42:42.441Z,4.27
2022-12-27T20:45:13.709Z,3.93
2022-12-27T20:47:42.708Z,3.50
2022-12-27T20:50:11.606Z,3.57
2022-12-27T20:52:39.849Z,2.87
2022-12-27T20:55:11.440Z,2.90
2022-12-27T20:57:45.139Z,2.80
2022-12-27T21:00:15.862Z,3.10
2022-12-27T21:02:45.744Z,3.27
2022-12-27T21:05:14.043Z,3.03
2022-12-27T21:07:44.337Z,2.77
2022-12-27T21:10:14.219Z,2.40
2022-12-27T21:12:44.046Z,2.73
2022-12-27T21:15:12.458Z,2.53
2022-12-27T21:17:40.724Z,2.50
2022-12-27T21:20:11.844Z,2.90
2022-12-27T21:22:40.742Z,2.30
2022-12-27T21:25:09.807Z,2.27
2022-12-27T21:27:39.684Z,2.40
2022-12-27T21:30:13.496Z,2.53
2022-12-27T21:32:45.465Z,2.30
2022-12-27T21:35:14.682Z,2.30
2022-12-27T21:37:43.265Z,2.60
2022-12-27T21:40:15.648Z,2.57
2022-12-27T21:42:49.045Z,2.40
2022-12-27T21:45:22.891Z,2.30
2022-12-27T21:47:54.698Z,2.40
2022-12-27T21:50:23.930Z,2.50
2022-12-27T21:52:59.867Z,2.57
2022-12-27T21:55:29.588Z,2.10
2022-12-27T21:58:01.707Z,2.50
2022-12-27T22:00:31.213Z,2.30
2022-12-27T22:03:01.430Z,2.53
2022-12-27T22:05:34.665Z,2.70
2022-12-27T22:08:09.211Z,2.60
2022-12-27T22:10:40.073Z,2.17
2022-12-27T22:13:11.215Z,2.43
2022-12-27T22:15:40.029Z,2.60
2022-12-27T22:18:09.026Z,2.60
2022-12-27T22:20:45.097Z,2.50
2022-12-27T22:23:15.515Z,2.03
2022-12-27T22:25:45.000Z,2.60
2022-12-27T22:28:17.342Z,2.40
2022-12-27T22:30:46.069Z,2.53
2022-12-27T22:33:16.726Z,2.37
2022-12-27T22:35:45.902Z,2.60
2022-12-27T22:38:14.845Z,2.93
2022-12-27T22:40:46.818Z,2.30
2022-12-27T22:43:20.235Z,2.73
2022-12-27T22:45:53.783Z,2.63
2022-12-27T22:48:22.646Z,2.93
2022-12-27T22:50:50.839Z,2.60
2022-12-27T22:53:19.170Z,2.70
2022-12-27T22:55:49.098Z,2.93
2022-12-27T22:58:20.302Z,2.63
2022-12-27T23:00:48.368Z,2.50
2022-12-27T23:03:16.478Z,2.60
2022-12-27T23:05:44.839Z,2.80
2022-12-27T23:08:13.134Z,2.20
2022-12-27T23:10:41.611Z,3.60
2022-12-27T23:13:09.845Z,2.33
2022-12-27T23:15:39.469Z,2.73
2022-12-27T23:18:10.684Z,2.70
2022-12-27T23:20:38.863Z,2.50
2022-12-27T23:23:31.699Z,2.00
2022-12-27T23:26:16.836Z,2.30
2022-12-27T23:29:11.391Z,2.50
2022-12-27T23:32:23.825Z,2.30
2022-12-27T23:34:53.930Z,2.63
2022-12-27T23:37:22.457Z,2.27
2022-12-27T23:39:51.091Z,2.50
2022-12-27T23:42:19.428Z,2.67
2022-12-27T23:44:47.661Z,2.57
2022-12-27T23:47:15.850Z,1.90
2022-12-27T23:49:45.473Z,2.50
2022-12-27T23:52:13.803Z,2.43
2022-12-27T23:54:41.873Z,2.40
2022-12-27T23:57:20.393Z,2.60
2022-12-27T23:59:51.882Z,2.50
